sensor_id;sensor_type;location;lat;lon;timestamp;P1;durP1;ratioP1;P2;durP2;ratioP2
72590;SDS011;60625;51.212;5.952;2022-10-26T00:04:44;9.20;;;3.90;;
72590;SDS011;60625;51.212;5.952;2022-10-26T00:09:45;10.00;;;3.30;;
72590;SDS011;60625;51.212;5.952;2022-10-26T00:14:45;10.80;;;3.10;;
72590;SDS011;60625;51.212;5.952;2022-10-26T00:19:46;7.80;;;3.00;;
72590;SDS011;60625;51.212;5.952;2022-10-26T00:24:46;15.00;;;2.60;;
72590;SDS011;60625;51.212;5.952;2022-10-26T00:29:47;7.80;;;2.60;;
72590;SDS011;60625;51.212;5.952;2022-10-26T00:34:47;11.00;;;2.70;;
72590;SDS011;60625;51.212;5.952;2022-10-26T00:39:48;7.40;;;2.10;;
72590;SDS011;60625;51.212;5.952;2022-10-26T00:49:50;7.30;;;2.30;;
72590;SDS011;60625;51.212;5.952;2022-10-26T00:54:52;6.10;;;1.90;;
72590;SDS011;60625;51.212;5.952;2022-10-26T00:59:54;5.50;;;1.40;;
72590;SDS011;60625;51.212;5.952;2022-10-26T01:04:55;5.40;;;1.40;;
72590;SDS011;60625;51.212;5.952;2022-10-26T01:09:56;6.60;;;1.70;;
72590;SDS011;60625;51.212;5.952;2022-10-26T01:14:57;6.80;;;1.80;;
72590;SDS011;60625;51.212;5.952;2022-10-26T01:20:28;7.30;;;1.60;;
72590;SDS011;60625;51.212;5.952;2022-10-26T01:26:15;7.20;;;1.80;;
72590;SDS011;60625;51.212;5.952;2022-10-26T01:31:52;5.00;;;1.60;;
72590;SDS011;60625;51.212;5.952;2022-10-26T01:37:22;8.90;;;2.40;;
72590;SDS011;60625;51.212;5.952;2022-10-26T01:42:26;9.60;;;1.90;;
72590;SDS011;60625;51.212;5.952;2022-10-26T01:47:29;7.50;;;1.70;;
72590;SDS011;60625;51.212;5.952;2022-10-26T01:52:30;8.40;;;1.80;;
72590;SDS011;60625;51.212;5.952;2022-10-26T01:57:33;7.60;;;2.30;;
72590;SDS011;60625;51.212;5.952;2022-10-26T02:03:26;7.40;;;2.30;;
72590;SDS011;60625;51.212;5.952;2022-10-26T02:08:54;7.40;;;2.10;;
72590;SDS011;60625;51.212;5.952;2022-10-26T02:14:12;4.60;;;1.40;;
72590;SDS011;60625;51.212;5.952;2022-10-26T02:19:42;5.00;;;1.40;;
72590;SDS011;60625;51.212;5.952;2022-10-26T02:24:48;7.00;;;1.70;;
72590;SDS011;60625;51.212;5.952;2022-10-26T02:29:50;10.10;;;1.80;;
72590;SDS011;60625;51.212;5.952;2022-10-26T02:34:55;6.10;;;1.30;;
72590;SDS011;60625;51.212;5.952;2022-10-26T02:39:58;6.40;;;1.80;;
72590;SDS011;60625;51.212;5.952;2022-10-26T02:45:08;7.40;;;1.30;;
72590;SDS011;60625;51.212;5.952;2022-10-26T02:50:11;5.10;;;1.70;;
72590;SDS011;60625;51.212;5.952;2022-10-26T02:55:20;7.10;;;1.70;;
72590;SDS011;60625;51.212;5.952;2022-10-26T03:00:28;5.80;;;1.50;;
72590;SDS011;60625;51.212;5.952;2022-10-26T03:05:30;6.50;;;1.60;;
72590;SDS011;60625;51.212;5.952;2022-10-26T03:10:32;8.80;;;1.40;;
72590;SDS011;60625;51.212;5.952;2022-10-26T03:15:34;8.10;;;1.60;;
72590;SDS011;60625;51.212;5.952;2022-10-26T03:20:34;7.90;;;1.70;;
72590;SDS011;60625;51.212;5.952;2022-10-26T03:25:34;9.90;;;1.20;;
72590;SDS011;60625;51.212;5.952;2022-10-26T03:30:35;6.40;;;1.50;;
72590;SDS011;60625;51.212;5.952;2022-10-26T03:35:35;11.70;;;1.60;;
72590;SDS011;60625;51.212;5.952;2022-10-26T03:40:35;7.80;;;1.70;;
72590;SDS011;60625;51.212;5.952;2022-10-26T03:45:37;7.40;;;1.40;;
72590;SDS011;60625;51.212;5.952;2022-10-26T03:50:37;7.80;;;1.40;;
72590;SDS011;60625;51.212;5.952;2022-10-26T03:55:37;5.10;;;1.10;;
72590;SDS011;60625;51.212;5.952;2022-10-26T04:00:38;11.20;;;1.50;;
72590;SDS011;60625;51.212;5.952;2022-10-26T04:05:38;9.30;;;1.00;;
72590;SDS011;60625;51.212;5.952;2022-10-26T04:10:39;6.40;;;1.50;;
72590;SDS011;60625;51.212;5.952;2022-10-26T04:15:39;10.00;;;1.40;;
72590;SDS011;60625;51.212;5.952;2022-10-26T04:20:40;7.90;;;1.90;;
72590;SDS011;60625;51.212;5.952;2022-10-26T04:25:42;8.30;;;1.90;;
72590;SDS011;60625;51.212;5.952;2022-10-26T04:30:42;10.50;;;1.80;;
72590;SDS011;60625;51.212;5.952;2022-10-26T04:35:43;7.30;;;1.60;;
72590;SDS011;60625;51.212;5.952;2022-10-26T04:40:44;10.70;;;2.10;;
72590;SDS011;60625;51.212;5.952;2022-10-26T04:45:45;13.40;;;1.60;;
72590;SDS011;60625;51.212;5.952;2022-10-26T04:50:45;6.30;;;1.40;;
72590;SDS011;60625;51.212;5.952;2022-10-26T04:55:46;7.50;;;1.70;;
72590;SDS011;60625;51.212;5.952;2022-10-26T05:00:47;6.00;;;1.30;;
72590;SDS011;60625;51.212;5.952;2022-10-26T05:05:47;4.80;;;1.40;;
72590;SDS011;60625;51.212;5.952;2022-10-26T05:10:48;7.20;;;1.50;;
72590;SDS011;60625;51.212;5.952;2022-10-26T05:15:52;5.00;;;2.00;;
72590;SDS011;60625;51.212;5.952;2022-10-26T05:20:53;8.10;;;1.50;;
72590;SDS011;60625;51.212;5.952;2022-10-26T05:25:54;7.10;;;1.90;;
72590;SDS011;60625;51.212;5.952;2022-10-26T05:30:57;5.80;;;1.80;;
72590;SDS011;60625;51.212;5.952;2022-10-26T05:35:58;8.90;;;1.90;;
72590;SDS011;60625;51.212;5.952;2022-10-26T05:40:58;7.30;;;1.50;;
72590;SDS011;60625;51.212;5.952;2022-10-26T05:46:00;6.20;;;1.20;;
72590;SDS011;60625;51.212;5.952;2022-10-26T05:51:01;7.00;;;1.50;;
72590;SDS011;60625;51.212;5.952;2022-10-26T05:56:01;7.00;;;1.80;;
72590;SDS011;60625;51.212;5.952;2022-10-26T06:07:02;6.20;;;1.60;;
72590;SDS011;60625;51.212;5.952;2022-10-26T06:12:03;6.10;;;2.00;;
72590;SDS011;60625;51.212;5.952;2022-10-26T06:34:26;5.50;;;2.10;;
72590;SDS011;60625;51.212;5.952;2022-10-26T06:39:30;5.40;;;2.00;;
72590;SDS011;60625;51.212;5.952;2022-10-26T06:44:36;6.00;;;1.60;;
72590;SDS011;60625;51.212;5.952;2022-10-26T06:49:41;6.00;;;2.00;;
72590;SDS011;60625;51.212;5.952;2022-10-26T06:54:53;6.80;;;2.20;;
72590;SDS011;60625;51.212;5.952;2022-10-26T07:00:00;6.10;;;2.30;;
72590;SDS011;60625;51.212;5.952;2022-10-26T07:05:05;5.20;;;2.20;;
72590;SDS011;60625;51.212;5.952;2022-10-26T07:10:10;4.70;;;2.20;;
72590;SDS011;60625;51.212;5.952;2022-10-26T07:15:11;8.50;;;2.80;;
72590;SDS011;60625;51.212;5.952;2022-10-26T07:20:13;8.30;;;2.30;;
72590;SDS011;60625;51.212;5.952;2022-10-26T07:25:18;4.80;;;1.60;;
72590;SDS011;60625;51.212;5.952;2022-10-26T07:30:19;6.00;;;2.00;;
72590;SDS011;60625;51.212;5.952;2022-10-26T07:35:20;4.70;;;1.80;;
72590;SDS011;60625;51.212;5.952;2022-10-26T07:40:20;8.20;;;1.80;;
72590;SDS011;60625;51.212;5.952;2022-10-26T07:45:20;6.00;;;1.50;;
72590;SDS011;60625;51.212;5.952;2022-10-26T07:50:22;8.60;;;2.20;;
72590;SDS011;60625;51.212;5.952;2022-10-26T07:55:22;6.60;;;2.40;;
72590;SDS011;60625;51.212;5.952;2022-10-26T08:00:23;6.10;;;1.80;;
72590;SDS011;60625;51.212;5.952;2022-10-26T08:05:25;4.40;;;1.50;;
72590;SDS011;60625;51.212;5.952;2022-10-26T08:10:25;10.60;;;2.20;;
72590;SDS011;60625;51.212;5.952;2022-10-26T08:15:26;4.60;;;1.30;;
72590;SDS011;60625;51.212;5.952;2022-10-26T08:20:26;4.00;;;1.40;;
72590;SDS011;60625;51.212;5.952;2022-10-26T08:25:27;7.00;;;1.30;;
72590;SDS011;60625;51.212;5.952;2022-10-26T08:30:31;4.90;;;0.80;;
72590;SDS011;60625;51.212;5.952;2022-10-26T08:35:32;5.90;;;1.10;;
72590;SDS011;60625;51.212;5.952;2022-10-26T08:40:37;4.80;;;1.40;;
72590;SDS011;60625;51.212;5.952;2022-10-26T08:45:45;4.70;;;1.50;;
72590;SDS011;60625;51.212;5.952;2022-10-26T08:50:53;5.10;;;1.00;;
72590;SDS011;60625;51.212;5.952;2022-10-26T08:56:14;4.50;;;1.20;;
72590;SDS011;60625;51.212;5.952;2022-10-26T09:01:18;6.70;;;1.20;;
72590;SDS011;60625;51.212;5.952;2022-10-26T09:17:12;9.10;;;1.20;;
72590;SDS011;60625;51.212;5.952;2022-10-26T09:22:39;7.60;;;1.40;;
72590;SDS011;60625;51.212;5.952;2022-10-26T09:27:54;6.50;;;1.40;;
72590;SDS011;60625;51.212;5.952;2022-10-26T09:33:11;6.40;;;1.40;;
72590;SDS011;60625;51.212;5.952;2022-10-26T09:38:28;8.90;;;1.90;;
72590;SDS011;60625;51.212;5.952;2022-10-26T09:43:39;4.30;;;1.50;;
72590;SDS011;60625;51.212;5.952;2022-10-26T09:49:04;5.20;;;1.10;;
72590;SDS011;60625;51.212;5.952;2022-10-26T09:54:16;6.90;;;2.00;;
72590;SDS011;60625;51.212;5.952;2022-10-26T09:59:21;9.00;;;1.40;;
72590;SDS011;60625;51.212;5.952;2022-10-26T10:04:22;6.30;;;1.10;;
72590;SDS011;60625;51.212;5.952;2022-10-26T10:09:23;8.50;;;1.00;;
72590;SDS011;60625;51.212;5.952;2022-10-26T10:14:32;7.10;;;1.50;;
72590;SDS011;60625;51.212;5.952;2022-10-26T10:19:39;5.10;;;1.50;;
72590;SDS011;60625;51.212;5.952;2022-10-26T10:25:00;5.80;;;1.30;;
72590;SDS011;60625;51.212;5.952;2022-10-26T10:30:20;5.50;;;0.90;;
72590;SDS011;60625;51.212;5.952;2022-10-26T10:35:27;5.10;;;1.10;;
72590;SDS011;60625;51.212;5.952;2022-10-26T10:40:29;3.40;;;0.80;;
72590;SDS011;60625;51.212;5.952;2022-10-26T10:45:31;4.10;;;0.90;;
72590;SDS011;60625;51.212;5.952;2022-10-26T10:50:32;5.60;;;0.80;;
72590;SDS011;60625;51.212;5.952;2022-10-26T10:55:34;5.20;;;1.20;;
72590;SDS011;60625;51.212;5.952;2022-10-26T11:00:36;5.60;;;0.80;;
72590;SDS011;60625;51.212;5.952;2022-10-26T11:06:09;4.80;;;0.70;;
72590;SDS011;60625;51.212;5.952;2022-10-26T11:11:26;3.90;;;0.70;;
72590;SDS011;60625;51.212;5.952;2022-10-26T11:16:36;7.20;;;0.80;;
72590;SDS011;60625;51.212;5.952;2022-10-26T11:21:39;6.80;;;1.20;;
72590;SDS011;60625;51.212;5.952;2022-10-26T11:26:46;3.90;;;0.90;;
72590;SDS011;60625;51.212;5.952;2022-10-26T11:31:59;6.20;;;0.90;;
72590;SDS011;60625;51.212;5.952;2022-10-26T11:37:29;4.60;;;0.60;;
72590;SDS011;60625;51.212;5.952;2022-10-26T11:42:40;4.20;;;0.70;;
72590;SDS011;60625;51.212;5.952;2022-10-26T11:48:03;7.60;;;1.00;;
72590;SDS011;60625;51.212;5.952;2022-10-26T11:53:15;3.90;;;0.70;;
72590;SDS011;60625;51.212;5.952;2022-10-26T11:58:17;5.40;;;1.00;;
72590;SDS011;60625;51.212;5.952;2022-10-26T12:03:24;5.40;;;0.60;;
72590;SDS011;60625;51.212;5.952;2022-10-26T12:08:30;6.90;;;1.00;;
72590;SDS011;60625;51.212;5.952;2022-10-26T12:13:46;5.10;;;1.00;;
72590;SDS011;60625;51.212;5.952;2022-10-26T12:24:29;3.50;;;0.60;;
72590;SDS011;60625;51.212;5.952;2022-10-26T12:35:36;5.90;;;1.00;;
72590;SDS011;60625;51.212;5.952;2022-10-26T12:40:40;5.50;;;0.80;;
72590;SDS011;60625;51.212;5.952;2022-10-26T12:45:46;3.60;;;0.70;;
72590;SDS011;60625;51.212;5.952;2022-10-26T12:56:24;3.20;;;0.60;;
72590;SDS011;60625;51.212;5.952;2022-10-26T13:07:24;3.30;;;0.80;;
72590;SDS011;60625;51.212;5.952;2022-10-26T13:12:26;4.40;;;0.80;;
72590;SDS011;60625;51.212;5.952;2022-10-26T13:17:31;4.50;;;0.70;;
72590;SDS011;60625;51.212;5.952;2022-10-26T13:22:32;4.50;;;0.90;;
72590;SDS011;60625;51.212;5.952;2022-10-26T13:32:39;5.50;;;0.60;;
72590;SDS011;60625;51.212;5.952;2022-10-26T13:37:46;2.80;;;0.50;;
72590;SDS011;60625;51.212;5.952;2022-10-26T13:42:52;4.30;;;0.40;;
72590;SDS011;60625;51.212;5.952;2022-10-26T13:48:01;2.90;;;0.60;;
72590;SDS011;60625;51.212;5.952;2022-10-26T13:53:20;2.70;;;0.80;;
72590;SDS011;60625;51.212;5.952;2022-10-26T13:59:02;3.80;;;0.70;;
72590;SDS011;60625;51.212;5.952;2022-10-26T14:04:25;6.40;;;0.80;;
72590;SDS011;60625;51.212;5.952;2022-10-26T14:09:28;5.70;;;0.50;;
72590;SDS011;60625;51.212;5.952;2022-10-26T14:14:34;3.60;;;0.80;;
72590;SDS011;60625;51.212;5.952;2022-10-26T14:19:38;4.60;;;0.60;;
72590;SDS011;60625;51.212;5.952;2022-10-26T14:24:39;3.70;;;0.60;;
72590;SDS011;60625;51.212;5.952;2022-10-26T14:29:40;3.80;;;0.60;;
72590;SDS011;60625;51.212;5.952;2022-10-26T14:34:41;3.40;;;0.50;;
72590;SDS011;60625;51.212;5.952;2022-10-26T14:39:43;4.90;;;0.80;;
72590;SDS011;60625;51.212;5.952;2022-10-26T14:44:45;2.60;;;0.40;;
72590;SDS011;60625;51.212;5.952;2022-10-26T14:49:45;5.10;;;0.80;;
72590;SDS011;60625;51.212;5.952;2022-10-26T14:54:57;3.70;;;0.40;;
72590;SDS011;60625;51.212;5.952;2022-10-26T15:00:24;2.80;;;0.60;;
72590;SDS011;60625;51.212;5.952;2022-10-26T15:05:30;5.30;;;0.80;;
72590;SDS011;60625;51.212;5.952;2022-10-26T15:15:36;4.30;;;0.90;;
72590;SDS011;60625;51.212;5.952;2022-10-26T15:20:37;6.40;;;0.70;;
72590;SDS011;60625;51.212;5.952;2022-10-26T15:25:39;4.60;;;0.50;;
72590;SDS011;60625;51.212;5.952;2022-10-26T15:31:04;5.70;;;1.00;;
72590;SDS011;60625;51.212;5.952;2022-10-26T15:36:16;6.70;;;1.10;;
72590;SDS011;60625;51.212;5.952;2022-10-26T15:41:22;8.00;;;0.60;;
72590;SDS011;60625;51.212;5.952;2022-10-26T15:46:28;3.70;;;0.50;;
72590;SDS011;60625;51.212;5.952;2022-10-26T15:51:30;4.20;;;0.70;;
72590;SDS011;60625;51.212;5.952;2022-10-26T15:56:31;3.30;;;0.80;;
72590;SDS011;60625;51.212;5.952;2022-10-26T16:01:31;3.80;;;1.00;;
72590;SDS011;60625;51.212;5.952;2022-10-26T16:06:34;6.90;;;0.70;;
72590;SDS011;60625;51.212;5.952;2022-10-26T16:11:34;4.70;;;0.90;;
72590;SDS011;60625;51.212;5.952;2022-10-26T16:16:35;4.90;;;0.80;;
72590;SDS011;60625;51.212;5.952;2022-10-26T16:21:36;5.70;;;0.60;;
72590;SDS011;60625;51.212;5.952;2022-10-26T16:26:36;6.40;;;1.00;;
72590;SDS011;60625;51.212;5.952;2022-10-26T16:31:37;7.70;;;1.00;;
72590;SDS011;60625;51.212;5.952;2022-10-26T16:36:37;3.00;;;0.60;;
72590;SDS011;60625;51.212;5.952;2022-10-26T16:41:38;6.10;;;1.10;;
72590;SDS011;60625;51.212;5.952;2022-10-26T16:46:38;4.90;;;0.90;;
72590;SDS011;60625;51.212;5.952;2022-10-26T16:51:39;4.40;;;0.80;;
72590;SDS011;60625;51.212;5.952;2022-10-26T16:56:39;3.80;;;1.10;;
72590;SDS011;60625;51.212;5.952;2022-10-26T17:01:42;4.50;;;1.00;;
72590;SDS011;60625;51.212;5.952;2022-10-26T17:06:42;4.20;;;1.00;;
72590;SDS011;60625;51.212;5.952;2022-10-26T17:11:43;7.00;;;0.80;;
72590;SDS011;60625;51.212;5.952;2022-10-26T17:16:43;6.10;;;0.90;;
72590;SDS011;60625;51.212;5.952;2022-10-26T17:21:44;3.80;;;0.90;;
72590;SDS011;60625;51.212;5.952;2022-10-26T17:26:44;4.70;;;1.00;;
72590;SDS011;60625;51.212;5.952;2022-10-26T17:31:45;6.00;;;1.30;;
72590;SDS011;60625;51.212;5.952;2022-10-26T17:36:45;6.30;;;1.30;;
72590;SDS011;60625;51.212;5.952;2022-10-26T17:41:46;4.60;;;1.30;;
72590;SDS011;60625;51.212;5.952;2022-10-26T17:46:46;6.90;;;1.70;;
72590;SDS011;60625;51.212;5.952;2022-10-26T17:51:47;7.00;;;1.80;;
72590;SDS011;60625;51.212;5.952;2022-10-26T17:56:47;9.70;;;1.70;;
72590;SDS011;60625;51.212;5.952;2022-10-26T18:01:47;8.40;;;2.50;;
72590;SDS011;60625;51.212;5.952;2022-10-26T18:06:49;6.80;;;1.60;;
72590;SDS011;60625;51.212;5.952;2022-10-26T18:11:49;5.70;;;1.50;;
72590;SDS011;60625;51.212;5.952;2022-10-26T18:16:50;4.20;;;1.20;;
72590;SDS011;60625;51.212;5.952;2022-10-26T18:21:50;6.00;;;1.70;;
72590;SDS011;60625;51.212;5.952;2022-10-26T18:26:50;6.70;;;2.00;;
72590;SDS011;60625;51.212;5.952;2022-10-26T18:31:51;8.80;;;1.40;;
72590;SDS011;60625;51.212;5.952;2022-10-26T18:36:52;4.70;;;0.90;;
72590;SDS011;60625;51.212;5.952;2022-10-26T18:41:53;7.40;;;1.30;;
72590;SDS011;60625;51.212;5.952;2022-10-26T18:46:53;7.00;;;1.40;;
72590;SDS011;60625;51.212;5.952;2022-10-26T18:51:54;5.30;;;1.50;;
72590;SDS011;60625;51.212;5.952;2022-10-26T18:56:54;4.70;;;1.40;;
72590;SDS011;60625;51.212;5.952;2022-10-26T19:01:54;6.10;;;1.50;;
72590;SDS011;60625;51.212;5.952;2022-10-26T19:06:55;4.40;;;1.50;;
72590;SDS011;60625;51.212;5.952;2022-10-26T19:11:55;5.00;;;1.70;;
72590;SDS011;60625;51.212;5.952;2022-10-26T19:16:56;7.30;;;1.50;;
72590;SDS011;60625;51.212;5.952;2022-10-26T19:21:56;9.00;;;1.80;;
72590;SDS011;60625;51.212;5.952;2022-10-26T19:26:59;6.60;;;1.60;;
72590;SDS011;60625;51.212;5.952;2022-10-26T19:31:59;6.90;;;2.20;;
72590;SDS011;60625;51.212;5.952;2022-10-26T19:37:02;6.40;;;1.60;;
72590;SDS011;60625;51.212;5.952;2022-10-26T19:42:04;9.70;;;2.10;;
72590;SDS011;60625;51.212;5.952;2022-10-26T19:47:04;7.60;;;2.90;;
72590;SDS011;60625;51.212;5.952;2022-10-26T19:52:05;10.30;;;4.00;;
72590;SDS011;60625;51.212;5.952;2022-10-26T19:57:05;10.20;;;4.50;;
72590;SDS011;60625;51.212;5.952;2022-10-26T20:02:06;6.90;;;3.20;;
72590;SDS011;60625;51.212;5.952;2022-10-26T20:07:06;8.40;;;3.10;;
72590;SDS011;60625;51.212;5.952;2022-10-26T20:12:07;7.80;;;3.60;;
72590;SDS011;60625;51.212;5.952;2022-10-26T20:17:11;7.90;;;3.30;;
72590;SDS011;60625;51.212;5.952;2022-10-26T20:22:12;8.60;;;3.40;;
72590;SDS011;60625;51.212;5.952;2022-10-26T20:27:12;11.20;;;4.10;;
72590;SDS011;60625;51.212;5.952;2022-10-26T20:32:12;10.00;;;4.60;;
72590;SDS011;60625;51.212;5.952;2022-10-26T20:37:14;9.10;;;4.60;;
72590;SDS011;60625;51.212;5.952;2022-10-26T20:42:21;12.10;;;3.60;;
72590;SDS011;60625;51.212;5.952;2022-10-26T20:47:23;10.20;;;3.40;;
72590;SDS011;60625;51.212;5.952;2022-10-26T20:52:41;9.80;;;3.40;;
72590;SDS011;60625;51.212;5.952;2022-10-26T20:57:59;7.10;;;2.80;;
72590;SDS011;60625;51.212;5.952;2022-10-26T21:03:02;8.00;;;2.70;;
72590;SDS011;60625;51.212;5.952;2022-10-26T21:08:03;9.70;;;3.00;;
72590;SDS011;60625;51.212;5.952;2022-10-26T21:13:04;12.30;;;3.30;;
72590;SDS011;60625;51.212;5.952;2022-10-26T21:18:04;6.10;;;2.20;;
72590;SDS011;60625;51.212;5.952;2022-10-26T21:23:04;8.80;;;2.50;;
72590;SDS011;60625;51.212;5.952;2022-10-26T21:28:05;8.00;;;2.70;;
72590;SDS011;60625;51.212;5.952;2022-10-26T21:33:08;8.40;;;2.20;;
72590;SDS011;60625;51.212;5.952;2022-10-26T21:38:09;8.20;;;2.10;;
72590;SDS011;60625;51.212;5.952;2022-10-26T21:43:09;7.60;;;2.20;;
72590;SDS011;60625;51.212;5.952;2022-10-26T21:48:11;8.10;;;2.60;;
72590;SDS011;60625;51.212;5.952;2022-10-26T21:53:12;10.60;;;3.70;;
72590;SDS011;60625;51.212;5.952;2022-10-26T21:58:14;9.30;;;3.10;;
72590;SDS011;60625;51.212;5.952;2022-10-26T22:03:16;6.30;;;1.80;;
72590;SDS011;60625;51.212;5.952;2022-10-26T22:08:17;6.50;;;2.40;;
72590;SDS011;60625;51.212;5.952;2022-10-26T22:13:17;8.80;;;2.10;;
72590;SDS011;60625;51.212;5.952;2022-10-26T22:18:18;8.30;;;1.80;;
72590;SDS011;60625;51.212;5.952;2022-10-26T22:23:18;7.40;;;1.90;;
72590;SDS011;60625;51.212;5.952;2022-10-26T22:28:18;7.00;;;2.10;;
72590;SDS011;60625;51.212;5.952;2022-10-26T22:33:19;9.40;;;2.20;;
72590;SDS011;60625;51.212;5.952;2022-10-26T22:38:20;9.60;;;2.00;;
72590;SDS011;60625;51.212;5.952;2022-10-26T22:43:20;10.80;;;2.00;;
72590;SDS011;60625;51.212;5.952;2022-10-26T22:48:21;6.60;;;1.70;;
72590;SDS011;60625;51.212;5.952;2022-10-26T22:53:22;8.10;;;1.70;;
72590;SDS011;60625;51.212;5.952;2022-10-26T22:58:23;5.40;;;2.10;;
72590;SDS011;60625;51.212;5.952;2022-10-26T23:03:23;7.20;;;1.90;;
72590;SDS011;60625;51.212;5.952;2022-10-26T23:08:24;6.50;;;1.60;;
72590;SDS011;60625;51.212;5.952;2022-10-26T23:13:26;5.40;;;1.30;;
72590;SDS011;60625;51.212;5.952;2022-10-26T23:18:27;4.50;;;1.20;;
72590;SDS011;60625;51.212;5.952;2022-10-26T23:23:27;6.50;;;1.80;;
72590;SDS011;60625;51.212;5.952;2022-10-26T23:28:28;5.20;;;1.60;;
72590;SDS011;60625;51.212;5.952;2022-10-26T23:33:28;4.60;;;1.10;;
72590;SDS011;60625;51.212;5.952;2022-10-26T23:38:30;5.50;;;1.50;;
72590;SDS011;60625;51.212;5.952;2022-10-26T23:43:30;5.80;;;1.20;;
72590;SDS011;60625;51.212;5.952;2022-10-26T23:48:30;6.20;;;1.50;;
72590;SDS011;60625;51.212;5.952;2022-10-26T23:53:31;7.90;;;2.10;;
72590;SDS011;60625;51.212;5.952;2022-10-26T23:58:31;8.10;;;2.00;;
